Time;durP1;ratioP1;P1;durP2;ratioP2;P2;SDS_P1;SDS_P2;PMS_P1;PMS_P2;Temp;Humidity;BMP_temperature;BMP_pressure;BME280_temperature;BME280_humidity;BME280_pressure;Samples;Min_cycle;Max_cycle;Signal;HPM_P1;HPM_P2
2023/07/17 00:01:38;;;;;;;6.68;3.08;;;;;;;18.87;66.44;96778.34;5113918;28;20530;-65
2023/07/17 00:04:07;;;;;;;4.63;3.67;;;;;;;18.86;65.85;96772.19;5113865;28;20050;-64
2023/07/17 00:06:34;;;;;;;6.32;3.65;;;;;;;18.84;66.16;96773.25;5113854;28;20523;-64
2023/07/17 00:09:02;;;;;;;6.55;3.22;;;;;;;18.79;66.29;96763.81;5114061;28;20046;-64
2023/07/17 00:11:29;;;;;;;3.70;3.28;;;;;;;18.79;66.36;96773.56;5113669;28;20079;-64
2023/07/17 00:13:57;;;;;;;6.80;3.80;;;;;;;18.77;66.28;96765.72;5113711;28;20060;-64
2023/07/17 00:16:24;;;;;;;5.07;3.63;;;;;;;18.73;66.22;96766.91;5113969;28;20051;-64
2023/07/17 00:18:51;;;;;;;9.20;3.95;;;;;;;18.69;66.68;96770.69;5113578;28;20035;-64
2023/07/17 00:21:20;;;;;;;3.88;3.47;;;;;;;18.63;66.38;96771.94;5113686;28;20075;-64
2023/07/17 00:23:48;;;;;;;6.20;3.53;;;;;;;18.60;66.66;96760.72;5113623;28;20048;-65
2023/07/17 00:26:15;;;;;;;8.57;4.20;;;;;;;18.61;66.51;96765.06;5113862;28;20112;-64
2023/07/17 00:28:43;;;;;;;5.57;3.83;;;;;;;18.63;66.91;96773.78;5113567;28;20052;-64
2023/07/17 00:31:11;;;;;;;4.47;3.58;;;;;;;18.62;67.29;96772.03;5113512;28;20054;-64
2023/07/17 00:33:38;;;;;;;3.95;3.55;;;;;;;18.59;67.25;96772.25;5113446;28;20043;-64
2023/07/17 00:36:06;;;;;;;4.78;3.70;;;;;;;18.50;67.14;96773.72;5113603;28;20055;-65
2023/07/17 00:38:35;;;;;;;6.70;3.70;;;;;;;18.41;67.70;96764.59;5113520;28;20050;-64
2023/07/17 00:41:02;;;;;;;8.15;3.65;;;;;;;18.46;68.10;96774.88;5113550;28;20043;-64
2023/07/17 00:43:30;;;;;;;4.70;3.70;;;;;;;18.48;68.23;96780.94;5113566;28;20044;-64
2023/07/17 00:45:58;;;;;;;8.93;3.67;;;;;;;18.49;68.43;96780.84;5113700;28;20055;-64
2023/07/17 00:48:26;;;;;;;12.02;3.50;;;;;;;18.42;67.75;96771.56;5113368;28;20050;-64
2023/07/17 00:50:53;;;;;;;7.28;3.72;;;;;;;18.38;67.81;96773.59;5113844;28;20052;-64
2023/07/17 00:53:20;;;;;;;3.70;3.15;;;;;;;18.37;67.90;96773.69;5117607;28;20054;-64
2023/07/17 00:55:49;;;;;;;7.47;4.40;;;;;;;18.37;68.58;96771.03;5117510;28;20071;-64
2023/07/17 00:58:17;;;;;;;5.57;3.60;;;;;;;18.37;68.71;96771.03;5117467;28;20071;-64
2023/07/17 01:00:44;;;;;;;10.50;3.38;;;;;;;18.33;68.24;96769.56;5117375;28;20052;-64
2023/07/17 01:03:11;;;;;;;7.03;3.70;;;;;;;18.29;68.70;96768.91;5117369;28;20047;-64
2023/07/17 01:05:38;;;;;;;5.78;3.45;;;;;;;18.23;68.73;96771.94;5117290;28;20079;-64
2023/07/17 01:08:05;;;;;;;4.20;3.22;;;;;;;18.19;68.54;96774.78;5117246;28;20043;-64
2023/07/17 01:10:32;;;;;;;5.28;3.47;;;;;;;18.18;69.35;96767.81;5117247;28;20069;-64
2023/07/17 01:13:01;;;;;;;5.65;4.05;;;;;;;18.21;69.50;96763.28;5117265;28;20101;-64
2023/07/17 01:15:28;;;;;;;5.07;3.60;;;;;;;18.24;69.43;96763.06;5117164;28;20047;-64
2023/07/17 01:17:55;;;;;;;6.25;3.88;;;;;;;18.23;68.96;96766.66;5116833;28;20052;-64
2023/07/17 01:20:22;;;;;;;5.90;3.65;;;;;;;18.21;69.12;96774.69;5117139;28;20040;-64
2023/07/17 01:22:55;;;;;;;5.43;3.80;;;;;;;18.19;69.13;96768.66;5116954;28;20459;-64
2023/07/17 01:25:22;;;;;;;4.40;3.38;;;;;;;18.18;69.22;96762.50;5117263;28;20048;-64
2023/07/17 01:27:50;;;;;;;3.88;3.45;;;;;;;18.14;69.48;96763.66;5116949;28;20039;-64
2023/07/17 01:30:17;;;;;;;4.90;3.50;;;;;;;18.10;69.39;96769.22;5116809;28;20040;-64
2023/07/17 01:32:44;;;;;;;3.63;3.33;;;;;;;18.08;69.60;96763.16;5116793;28;20088;-64
2023/07/17 01:35:11;;;;;;;3.97;3.35;;;;;;;18.03;68.89;96771.44;5117016;28;20040;-64
2023/07/17 01:37:38;;;;;;;4.13;3.28;;;;;;;17.96;69.53;96770.97;5116673;28;20108;-64
2023/07/17 01:40:09;;;;;;;4.90;3.83;;;;;;;17.93;69.62;96769.38;5116941;28;20081;-64
2023/07/17 01:42:36;;;;;;;4.78;3.50;;;;;;;17.92;69.08;96766.81;5116625;28;20047;-64
2023/07/17 01:45:04;;;;;;;3.88;3.47;;;;;;;17.91;68.78;96762.50;5116620;28;20081;-64
2023/07/17 01:47:31;;;;;;;4.95;3.90;;;;;;;17.91;68.41;96763.31;5116681;28;20047;-64
2023/07/17 01:49:59;;;;;;;5.55;3.65;;;;;;;17.90;69.45;96760.78;5116680;28;20043;-64
2023/07/17 01:52:26;;;;;;;5.95;3.65;;;;;;;17.87;69.40;96758.31;5116635;28;20047;-63
2023/07/17 01:54:53;;;;;;;4.72;3.33;;;;;;;17.88;69.69;96757.41;5116497;28;20044;-63
2023/07/17 01:57:21;;;;;;;5.25;3.42;;;;;;;17.87;69.37;96756.53;5116335;28;20047;-64
2023/07/17 01:59:48;;;;;;;6.00;3.88;;;;;;;17.86;68.73;96752.19;5116655;28;20135;-64
2023/07/17 02:02:15;;;;;;;4.75;3.70;;;;;;;17.84;68.97;96756.72;5115864;28;20047;-64
2023/07/17 02:04:43;;;;;;;6.20;3.42;;;;;;;17.83;68.73;96756.81;5115901;28;20047;-64
2023/07/17 02:07:10;;;;;;;5.53;3.95;;;;;;;17.76;69.02;96761.69;5116186;28;20061;-64
2023/07/17 02:09:37;;;;;;;6.78;4.00;;;;;;;17.74;69.06;96756.47;5116121;28;20048;-64
2023/07/17 02:12:04;;;;;;;6.30;3.90;;;;;;;17.75;68.64;96760.81;5116091;28;20048;-64
2023/07/17 02:14:33;;;;;;;6.05;3.30;;;;;;;17.68;68.16;96765.66;5116487;28;20050;-64
2023/07/17 02:17:00;;;;;;;5.25;4.00;;;;;;;17.62;68.28;96765.19;5115805;28;20050;-65
2023/07/17 02:19:27;;;;;;;6.75;3.75;;;;;;;17.61;68.45;96761.69;5115931;28;20142;-65
2023/07/17 02:21:54;;;;;;;6.35;3.70;;;;;;;17.58;68.49;96769.81;5115943;28;20087;-65
2023/07/17 02:24:21;;;;;;;6.57;3.40;;;;;;;17.52;68.57;96757.81;5115943;28;20054;-64
2023/07/17 02:26:48;;;;;;;6.47;3.78;;;;;;;17.45;68.77;96758.34;5115804;28;20048;-64
2023/07/17 02:29:15;;;;;;;4.90;4.03;;;;;;;17.37;68.71;96756.16;5115746;28;20393;-64
2023/07/17 02:31:44;;;;;;;4.25;3.65;;;;;;;17.34;69.02;96769.56;5115622;28;20089;-64
2023/07/17 02:34:12;;;;;;;5.50;3.95;;;;;;;17.37;68.70;96772.84;5115574;28;20052;-64
2023/07/17 02:36:39;;;;;;;5.47;3.85;;;;;;;17.38;68.48;96768.41;5115601;28;20480;-64
2023/07/17 02:39:06;;;;;;;5.00;3.80;;;;;;;17.25;68.74;96769.16;5115495;28;20054;-64
2023/07/17 02:41:34;;;;;;;6.28;4.43;;;;;;;17.25;69.36;96774.47;5115573;28;20116;-64
2023/07/17 02:44:01;;;;;;;4.50;3.78;;;;;;;17.29;69.25;96778.63;5115417;28;20405;-64
2023/07/17 02:46:28;;;;;;;6.13;4.18;;;;;;;17.28;69.31;96774.28;5115486;28;20039;-65
2023/07/17 02:48:57;;;;;;;6.45;4.38;;;;;;;17.28;69.04;96774.28;5115357;28;20054;-64
2023/07/17 02:51:24;;;;;;;7.47;4.32;;;;;;;17.30;69.67;96775.03;5115238;28;20413;-65
2023/07/17 02:53:51;;;;;;;5.60;3.67;;;;;;;17.33;69.10;96767.88;5115174;28;20040;-64
2023/07/17 02:56:19;;;;;;;8.00;4.53;;;;;;;17.34;68.74;96766.91;5115124;28;20048;-64
2023/07/17 02:58:48;;;;;;;6.50;4.65;;;;;;;17.33;68.73;96759.94;5115153;28;20047;-64
2023/07/17 03:01:16;;;;;;;5.07;4.35;;;;;;;17.32;68.41;96767.00;5115174;28;20062;-65
2023/07/17 03:03:43;;;;;;;8.98;4.15;;;;;;;17.29;68.72;96749.56;5114994;28;20501;-65
2023/07/17 03:06:11;;;;;;;6.63;4.35;;;;;;;17.32;69.14;96755.59;5114964;28;20108;-64
2023/07/17 03:08:38;;;;;;;7.47;4.78;;;;;;;17.34;68.35;96751.88;5114959;28;20047;-64
2023/07/17 03:11:06;;;;;;;5.57;4.22;;;;;;;17.36;68.13;96750.00;5115146;28;20047;-65
2023/07/17 03:13:33;;;;;;;5.75;4.53;;;;;;;17.40;68.29;96746.22;5114846;28;20485;-65
2023/07/17 03:16:00;;;;;;;5.78;4.15;;;;;;;17.41;68.52;96750.59;5114743;28;20046;-64
2023/07/17 03:18:28;;;;;;;7.68;4.78;;;;;;;17.45;67.94;96760.97;5114655;28;20123;-64
2023/07/17 03:20:56;;;;;;;8.50;4.22;;;;;;;17.45;68.40;96755.69;5114679;28;20051;-64
2023/07/17 03:23:25;;;;;;;7.18;4.72;;;;;;;17.43;67.78;96746.03;5114623;28;20054;-64
2023/07/17 03:25:52;;;;;;;7.22;5.00;;;;;;;17.43;68.28;96753.13;5114546;28;20047;-65
2023/07/17 03:28:19;;;;;;;9.13;5.03;;;;;;;17.46;68.82;96746.81;5114649;28;20135;-64
2023/07/17 03:30:46;;;;;;;10.13;5.18;;;;;;;17.48;69.16;96747.53;5114465;28;20047;-64
2023/07/17 03:33:13;;;;;;;8.60;5.30;;;;;;;17.55;68.47;96746.22;5114834;28;20097;-64
2023/07/17 03:35:40;;;;;;;7.88;4.80;;;;;;;17.55;68.68;96749.69;5114567;28;20052;-65
2023/07/17 03:38:07;;;;;;;7.70;5.63;;;;;;;17.61;68.26;96759.03;5114480;28;20043;-64
2023/07/17 03:40:36;;;;;;;6.70;4.97;;;;;;;17.63;68.59;96759.81;5114325;28;20476;-64
2023/07/17 03:43:03;;;;;;;6.55;4.85;;;;;;;17.63;68.09;96757.16;5114197;28;20446;-64
2023/07/17 03:45:30;;;;;;;10.20;4.72;;;;;;;17.71;68.28;96763.75;5114236;28;20477;-64
2023/07/17 03:47:57;;;;;;;11.93;5.25;;;;;;;17.82;67.17;96755.97;5114224;28;20500;-64
2023/07/17 03:50:24;;;;;;;5.50;5.00;;;;;;;18.09;67.60;96757.78;5114314;28;20054;-64
2023/07/17 03:52:51;;;;;;;10.32;5.00;;;;;;;18.41;66.37;96760.16;5114011;28;20058;-64
2023/07/17 03:55:18;;;;;;;10.20;5.60;;;;;;;18.80;64.79;96762.88;5114000;28;20088;-64
2023/07/17 03:57:47;;;;;;;7.47;5.25;;;;;;;19.17;64.15;96767.47;5114269;28;20051;-65
2023/07/17 04:00:15;;;;;;;6.63;5.28;;;;;;;19.58;63.22;96772.63;5113960;28;20485;-64
2023/07/17 04:02:42;;;;;;;7.20;4.85;;;;;;;20.01;60.22;96774.00;5114008;28;20133;-65
2023/07/17 04:05:10;;;;;;;7.40;5.43;;;;;;;20.43;59.71;96778.06;5114001;28;20087;-65
2023/07/17 04:07:37;;;;;;;7.43;5.03;;;;;;;20.85;59.78;96772.28;5113891;28;20054;-65
2023/07/17 04:10:05;;;;;;;8.02;5.43;;;;;;;21.26;57.98;96779.88;5113896;28;20120;-65
2023/07/17 04:12:32;;;;;;;6.88;5.10;;;;;;;21.66;56.77;96775.88;5113676;28;20051;-65
2023/07/17 04:15:01;;;;;;;8.00;5.00;;;;;;;22.08;55.66;96780.56;5113954;28;20074;-65
2023/07/17 04:17:28;;;;;;;7.90;4.95;;;;;;;22.45;54.66;96785.53;5113562;28;20404;-65
2023/07/17 04:19:55;;;;;;;12.02;5.68;;;;;;;22.80;53.00;96783.59;5113711;28;20051;-65
2023/07/17 04:22:22;;;;;;;7.40;4.65;;;;;;;23.16;52.42;96783.25;5113736;28;20047;-65
2023/07/17 04:24:49;;;;;;;9.18;5.32;;;;;;;23.46;50.98;96783.44;5113619;28;20538;-65
2023/07/17 04:27:16;;;;;;;5.78;4.75;;;;;;;23.71;50.17;96784.78;5113246;28;20043;-65
2023/07/17 04:29:44;;;;;;;7.75;5.28;;;;;;;23.89;49.11;96788.63;5113617;28;20047;-65
2023/07/17 04:32:13;;;;;;;12.07;5.07;;;;;;;23.96;49.89;96781.78;5113640;28;20055;-65
2023/07/17 04:34:40;;;;;;;7.05;4.57;;;;;;;24.00;52.13;96788.53;5113450;28;20083;-65
2023/07/17 04:37:07;;;;;;;8.80;5.35;;;;;;;24.02;53.24;96791.06;5113617;28;20402;-65
2023/07/17 04:39:35;;;;;;;8.77;5.10;;;;;;;24.05;53.88;96785.44;5113445;28;20485;-65
2023/07/17 04:42:02;;;;;;;6.13;4.97;;;;;;;24.21;54.73;96790.28;5113546;28;20059;-65
2023/07/17 04:44:29;;;;;;;10.15;5.22;;;;;;;24.45;54.05;96786.38;5113559;28;20059;-65
2023/07/17 04:46:56;;;;;;;10.52;4.78;;;;;;;24.44;52.08;96790.84;5113458;28;20455;-65
2023/07/17 04:49:25;;;;;;;6.30;4.90;;;;;;;24.35;52.00;96787.19;5113361;28;20127;-65
2023/07/17 04:51:52;;;;;;;6.55;4.97;;;;;;;24.40;53.29;96791.28;5113291;28;20094;-65
2023/07/17 04:54:19;;;;;;;7.72;4.80;;;;;;;24.65;53.33;96797.06;5113416;28;20481;-65
2023/07/17 04:56:46;;;;;;;6.90;4.78;;;;;;;24.88;53.23;96792.28;5113383;28;20104;-65
2023/07/17 04:59:13;;;;;;;6.38;5.15;;;;;;;25.06;52.04;96799.56;5113213;28;20130;-65
2023/07/17 05:01:40;;;;;;;5.75;4.18;;;;;;;25.38;50.58;96797.53;5113352;28;20047;-65
2023/07/17 05:04:07;;;;;;;5.82;4.20;;;;;;;25.73;48.82;96793.31;5113499;28;20044;-65
2023/07/17 05:06:36;;;;;;;6.13;4.55;;;;;;;26.09;48.46;96797.94;5113557;28;20104;-64
2023/07/17 05:09:03;;;;;;;6.40;4.95;;;;;;;26.12;48.83;96792.28;5113169;28;20121;-65
2023/07/17 05:11:32;;;;;;;7.90;4.43;;;;;;;26.31;51.19;96795.88;5113200;28;20044;-65
2023/07/17 05:13:59;;;;;;;7.25;4.10;;;;;;;26.57;46.47;96797.78;5113125;28;20040;-65
2023/07/17 05:16:26;;;;;;;8.40;3.65;;;;;;;26.86;44.02;96792.19;5113159;28;20048;-65
2023/07/17 05:18:53;;;;;;;5.60;4.05;;;;;;;27.26;43.88;96789.13;5113106;28;20493;-64
2023/07/17 05:21:20;;;;;;;4.57;3.60;;;;;;;27.58;40.25;96798.38;5113227;28;20128;-65
2023/07/17 05:23:49;;;;;;;5.80;3.75;;;;;;;28.07;39.18;96798.75;5113218;28;20050;-65
2023/07/17 05:26:16;;;;;;;5.53;3.75;;;;;;;28.46;39.78;96797.34;5112978;28;20083;-65
2023/07/17 05:28:43;;;;;;;5.97;3.80;;;;;;;28.86;39.21;96798.41;5112981;28;20464;-65
2023/07/17 05:31:11;;;;;;;6.07;3.83;;;;;;;29.15;38.68;96804.31;5113006;28;20082;-65
2023/07/17 05:33:38;;;;;;;4.35;3.88;;;;;;;29.57;41.48;96801.53;5113025;28;20048;-65
2023/07/17 05:36:06;;;;;;;4.47;3.78;;;;;;;29.97;39.05;96804.25;5112918;28;20092;-65
2023/07/17 05:38:33;;;;;;;5.03;3.53;;;;;;;30.32;38.64;96812.03;5114482;28;20496;-64
2023/07/17 05:41:03;;;;;;;6.30;3.72;;;;;;;30.62;38.34;96804.09;5116726;28;20046;-64
2023/07/17 05:43:31;;;;;;;6.63;3.50;;;;;;;30.75;37.82;96808.88;5116633;28;20058;-65
2023/07/17 05:45:59;;;;;;;4.68;3.72;;;;;;;30.54;36.68;96807.69;5116635;28;20049;-65
2023/07/17 05:48:26;;;;;;;7.78;4.07;;;;;;;30.24;39.17;96807.53;5116532;28;20058;-65
2023/07/17 05:50:53;;;;;;;7.88;4.22;;;;;;;30.16;42.98;96813.81;5116625;28;20435;-65
2023/07/17 05:53:21;;;;;;;5.10;3.92;;;;;;;30.36;38.77;96816.06;5116332;28;20047;-64
2023/07/17 05:55:49;;;;;;;12.77;4.47;;;;;;;30.60;36.71;96812.38;5116443;28;20051;-64
2023/07/17 05:58:18;;;;;;;4.28;3.63;;;;;;;30.87;34.13;96812.03;5116470;28;20047;-64
2023/07/17 06:00:46;;;;;;;6.65;4.10;;;;;;;31.09;36.50;96810.31;5116238;28;20093;-64
2023/07/17 06:03:13;;;;;;;6.30;3.83;;;;;;;31.31;35.63;96815.00;5116276;28;20051;-64
2023/07/17 06:05:40;;;;;;;6.28;4.03;;;;;;;31.49;36.11;96803.88;5116172;28;20104;-65
2023/07/17 06:08:09;;;;;;;6.07;4.20;;;;;;;31.71;33.90;96802.13;5116161;28;20477;-64
2023/07/17 06:10:36;;;;;;;5.82;4.57;;;;;;;31.83;32.92;96805.19;5116040;28;20092;-64
2023/07/17 06:13:03;;;;;;;6.68;4.50;;;;;;;32.08;33.72;96804.88;5116016;28;20052;-64
2023/07/17 06:15:33;;;;;;;10.48;4.47;;;;;;;32.37;33.60;96805.00;5115926;28;20040;-64
2023/07/17 06:18:00;;;;;;;6.13;4.35;;;;;;;32.65;33.39;96797.00;5115762;28;20048;-64
2023/07/17 06:20:28;;;;;;;5.30;4.32;;;;;;;32.80;32.04;96798.81;5115937;28;20050;-64
2023/07/17 06:22:55;;;;;;;8.48;4.65;;;;;;;32.98;34.54;96801.03;5116267;28;20051;-64
2023/07/17 06:25:22;;;;;;;9.43;4.68;;;;;;;33.22;32.28;96800.84;5116025;28;20139;-64
2023/07/17 06:27:50;;;;;;;5.05;4.45;;;;;;;33.38;31.30;96797.81;5115814;28;20047;-64
2023/07/17 06:30:17;;;;;;;8.25;4.65;;;;;;;33.49;31.85;96796.44;5115732;28;20051;-64
2023/07/17 06:32:46;;;;;;;6.85;5.03;;;;;;;33.67;31.02;96805.13;5115563;28;20538;-64
2023/07/17 06:35:14;;;;;;;5.45;4.70;;;;;;;33.41;29.70;96802.03;5115651;28;20043;-64
2023/07/17 06:37:41;;;;;;;11.48;5.43;;;;;;;33.51;30.85;96802.50;5115537;28;20089;-64
2023/07/17 06:40:10;;;;;;;6.93;5.25;;;;;;;33.58;30.16;96802.53;5115750;28;20481;-64
2023/07/17 06:42:38;;;;;;;9.15;5.78;;;;;;;33.48;31.42;96797.50;5115783;28;20048;-65
2023/07/17 06:45:07;;;;;;;9.00;5.82;;;;;;;33.61;29.61;96799.47;5115415;28;20043;-64
2023/07/17 06:47:34;;;;;;;8.63;5.38;;;;;;;33.72;29.58;96795.34;5115402;28;20044;-65
2023/07/17 06:50:03;;;;;;;12.60;5.65;;;;;;;33.97;29.60;96794.84;5114964;28;20044;-64
2023/07/17 06:52:31;;;;;;;8.23;5.47;;;;;;;34.00;30.21;96799.88;5115191;28;20043;-64
2023/07/17 06:54:58;;;;;;;8.55;5.28;;;;;;;34.09;28.24;96797.81;5115457;28;20046;-64
2023/07/17 06:57:25;;;;;;;6.07;5.30;;;;;;;34.31;27.90;96797.69;5115104;28;20127;-64
2023/07/17 06:59:52;;;;;;;7.97;5.35;;;;;;;34.35;26.01;96803.56;5115205;28;20083;-64
2023/07/17 07:02:19;;;;;;;6.05;5.13;;;;;;;34.28;26.81;96801.66;5115117;28;20040;-64
2023/07/17 07:04:46;;;;;;;9.48;5.35;;;;;;;34.09;28.05;96796.97;5115317;28;20088;-64
2023/07/17 07:07:15;;;;;;;7.72;5.45;;;;;;;34.00;30.72;96793.59;5115052;28;20090;-64
2023/07/17 07:09:42;;;;;;;11.60;5.22;;;;;;;34.13;28.51;96785.53;5114893;28;20097;-64
2023/07/17 07:12:10;;;;;;;8.57;5.10;;;;;;;34.15;28.62;96783.47;5114777;28;20048;-64
2023/07/17 07:14:38;;;;;;;7.50;5.20;;;;;;;34.31;27.78;96786.03;5114960;28;20051;-64
2023/07/17 07:17:06;;;;;;;10.68;4.88;;;;;;;34.49;26.97;96778.09;5114380;28;20044;-64
2023/07/17 07:19:33;;;;;;;6.13;5.18;;;;;;;34.85;28.95;96780.72;5114891;28;20051;-64
2023/07/17 07:22:01;;;;;;;7.85;5.25;;;;;;;35.04;27.61;96773.59;5114673;28;20052;-64
2023/07/17 07:24:30;;;;;;;8.00;5.03;;;;;;;35.24;27.03;96775.50;5114674;28;20051;-64
2023/07/17 07:26:57;;;;;;;5.75;4.88;;;;;;;35.42;27.33;96777.53;5114585;28;20488;-64
2023/07/17 07:29:24;;;;;;;13.05;5.70;;;;;;;35.42;27.72;96769.38;5114561;28;20097;-64
2023/07/17 07:31:51;;;;;;;5.50;4.40;;;;;;;35.57;27.30;96774.56;5114432;28;20043;-64
2023/07/17 07:34:19;;;;;;;12.95;5.18;;;;;;;35.86;24.36;96774.31;5114536;28;20489;-65
2023/07/17 07:36:46;;;;;;;6.93;4.95;;;;;;;36.01;25.42;96772.16;5114477;28;20097;-64
2023/07/17 07:39:13;;;;;;;6.55;4.10;;;;;;;36.22;25.46;96772.91;5114508;28;20044;-64
2023/07/17 07:41:42;;;;;;;7.55;4.57;;;;;;;36.39;26.04;96769.69;5114405;28;20043;-64
2023/07/17 07:44:09;;;;;;;5.10;4.53;;;;;;;36.47;24.46;96766.69;5114297;28;20075;-64
2023/07/17 07:46:36;;;;;;;4.68;4.15;;;;;;;36.61;23.47;96769.31;5114308;28;20047;-64
2023/07/17 07:49:04;;;;;;;10.77;4.63;;;;;;;36.73;23.75;96773.06;5114274;28;20054;-64
2023/07/17 07:51:31;;;;;;;4.22;3.80;;;;;;;36.62;23.05;96770.97;5114140;28;20065;-63
2023/07/17 07:53:58;;;;;;;6.70;4.28;;;;;;;36.72;23.19;96765.09;5114002;28;20047;-63
2023/07/17 07:56:26;;;;;;;8.02;4.30;;;;;;;36.84;22.45;96760.59;5114230;28;20044;-63
2023/07/17 07:58:54;;;;;;;6.18;3.97;;;;;;;36.89;22.40;96760.75;5113941;28;20047;-64
2023/07/17 08:01:21;;;;;;;5.70;4.05;;;;;;;37.08;24.19;96763.53;5113377;28;20058;-64
2023/07/17 08:03:48;;;;;;;4.38;3.95;;;;;;;37.17;23.26;96769.53;5114191;28;20523;-64
2023/07/17 08:06:15;;;;;;;10.82;4.00;;;;;;;37.25;23.52;96765.69;5114078;28;20542;-65
2023/07/17 08:08:43;;;;;;;7.35;4.05;;;;;;;37.09;22.48;96764.38;5113858;28;20094;-64
2023/07/17 08:11:10;;;;;;;4.97;4.07;;;;;;;37.09;22.25;96762.47;5113777;28;20551;-64
2023/07/17 08:13:37;;;;;;;4.88;3.63;;;;;;;37.05;24.22;96767.53;5114084;28;20051;-64
2023/07/17 08:16:05;;;;;;;4.30;3.90;;;;;;;36.76;24.56;96761.72;5113947;28;20050;-65
2023/07/17 08:18:33;;;;;;;6.00;3.88;;;;;;;36.94;23.83;96764.69;5113630;28;20404;-64
2023/07/17 08:21:01;;;;;;;4.53;3.80;;;;;;;37.08;22.75;96768.16;5113756;28;20450;-64
2023/07/17 08:23:29;;;;;;;5.65;4.20;;;;;;;37.20;21.81;96760.91;5113801;28;20047;-64
2023/07/17 08:25:56;;;;;;;5.88;4.38;;;;;;;37.08;23.34;96758.06;5113744;28;20047;-64
2023/07/17 08:28:23;;;;;;;5.43;4.05;;;;;;;37.00;24.43;96764.66;5113616;28;20070;-64
2023/07/17 08:30:53;;;;;;;4.78;4.28;;;;;;;36.82;24.90;96757.25;5113841;28;20489;-64
2023/07/17 08:33:22;;;;;;;;;;;;;;;36.58;23.45;96753.44;5113963;28;20517;-64
2023/07/17 08:35:51;;;;;;;5.65;4.25;;;;;;;36.41;24.50;96749.34;5113785;28;19931;-64
2023/07/17 08:38:18;;;;;;;6.72;4.60;;;;;;;36.31;24.32;96746.28;5113450;28;20401;-64
2023/07/17 08:40:53;;;;;;;6.05;4.60;;;;;;;36.50;23.00;96749.91;5113459;28;20119;-64
2023/07/17 08:43:20;;;;;;;5.45;4.47;;;;;;;36.58;24.85;96747.97;5113495;28;20556;-64
2023/07/17 08:45:48;;;;;;;5.53;4.38;;;;;;;36.07;23.25;96751.41;5113624;28;20040;-64
2023/07/17 08:48:16;;;;;;;7.57;4.63;;;;;;;35.47;23.93;96742.41;5113437;28;20126;-64
2023/07/17 08:50:45;;;;;;;6.45;4.30;;;;;;;35.04;26.10;96752.69;5113398;28;20040;-64
2023/07/17 08:53:13;;;;;;;8.23;4.57;;;;;;;34.99;27.93;96749.78;5113356;28;20047;-64
2023/07/17 08:55:41;;;;;;;8.25;4.95;;;;;;;35.09;27.70;96743.91;5113380;28;20485;-64
2023/07/17 08:58:09;;;;;;;5.75;4.50;;;;;;;35.25;25.67;96745.41;5113618;28;20048;-64
2023/07/17 09:00:37;;;;;;;7.93;4.30;;;;;;;35.41;27.65;96741.38;5113231;28;20496;-64
2023/07/17 09:03:04;;;;;;;6.05;4.97;;;;;;;35.53;26.73;96740.72;5113277;28;20048;-64
2023/07/17 09:05:31;;;;;;;8.48;4.80;;;;;;;35.56;24.66;96734.84;5113192;28;20499;-64
2023/07/17 09:08:00;;;;;;;10.30;5.13;;;;;;;35.41;24.64;96737.81;5113435;28;20077;-64
2023/07/17 09:10:28;;;;;;;8.82;5.50;;;;;;;35.29;26.22;96733.03;5113233;28;20051;-63
2023/07/17 09:12:58;;;;;;;5.78;4.75;;;;;;;35.63;28.53;96732.94;5115384;28;20043;-64
2023/07/17 09:15:25;;;;;;;7.90;5.17;;;;;;;35.78;25.10;96735.41;5117239;28;20047;-64
2023/07/17 09:17:53;;;;;;;9.48;5.22;;;;;;;35.56;27.06;96723.13;5116871;28;20047;-63
2023/07/17 09:20:21;;;;;;;6.70;4.88;;;;;;;35.52;26.74;96729.00;5117233;28;20050;-63
2023/07/17 09:22:49;;;;;;;10.55;4.93;;;;;;;35.61;28.34;96726.91;5117040;28;20484;-63
2023/07/17 09:25:18;;;;;;;6.50;4.50;;;;;;;35.73;27.31;96728.97;5117363;28;20477;-63
2023/07/17 09:27:47;;;;;;;9.52;4.82;;;;;;;35.97;27.47;96721.97;5117081;28;20044;-63
2023/07/17 09:30:15;;;;;;;7.82;4.75;;;;;;;36.08;26.35;96725.03;5116946;28;20222;-63
2023/07/17 09:32:43;;;;;;;9.27;5.20;;;;;;;36.19;27.41;96726.22;5116917;28;20050;-64
2023/07/17 09:35:12;;;;;;;9.27;5.20;;;;;;;36.31;26.97;96727.22;5116858;28;20055;-64
2023/07/17 09:37:41;;;;;;;8.27;4.85;;;;;;;36.31;27.39;96727.22;5117015;28;20051;-63
2023/07/17 09:40:11;;;;;;;5.23;4.73;;;;;;;36.14;27.84;96722.28;5116777;28;20047;-64
2023/07/17 09:42:40;;;;;;;8.32;5.13;;;;;;;36.11;28.36;96724.59;5116649;28;20295;-63
2023/07/17 09:45:11;;;;;;;8.65;5.13;;;;;;;36.08;26.92;96725.03;5116698;28;20503;-63
2023/07/17 09:47:38;;;;;;;8.40;4.95;;;;;;;35.89;25.67;96727.63;5116581;28;20074;-63
2023/07/17 09:50:07;;;;;;;9.68;5.20;;;;;;;35.89;25.63;96727.63;5116530;28;20076;-63
2023/07/17 09:52:35;;;;;;;8.60;5.05;;;;;;;35.89;27.11;96720.31;5116420;28;20130;-63
2023/07/17 09:55:02;;;;;;;6.38;4.57;;;;;;;35.84;30.52;96724.75;5116352;28;20485;-64
2023/07/17 09:57:32;;;;;;;8.52;4.50;;;;;;;35.84;28.08;96720.13;5116454;28;20105;-64
2023/07/17 10:00:04;;;;;;;6.38;4.78;;;;;;;35.81;26.85;96714.28;5116334;28;20055;-65
2023/07/17 10:02:37;;;;;;;6.22;4.70;;;;;;;35.35;25.92;96715.03;5116297;28;20047;-65
2023/07/17 10:05:06;;;;;;;6.22;4.65;;;;;;;35.14;27.28;96718.81;5116334;28;20047;-66
2023/07/17 10:07:36;;;;;;;7.00;4.53;;;;;;;35.16;28.34;96717.56;5116262;28;20047;-65
2023/07/17 10:10:05;;;;;;;9.07;5.05;;;;;;;35.37;28.45;96714.84;5116162;28;20043;-65
2023/07/17 10:12:34;;;;;;;8.93;4.55;;;;;;;35.49;30.24;96704.97;5116180;28;20412;-65
2023/07/17 10:15:03;;;;;;;6.97;4.55;;;;;;;35.62;28.63;96709.53;5115989;28;20473;-65
2023/07/17 10:17:31;;;;;;;5.75;5.15;;;;;;;35.54;28.04;96705.16;5115866;28;20058;-66
2023/07/17 10:20:00;;;;;;;9.27;4.55;;;;;;;35.63;28.40;96702.19;5115914;28;20378;-65
2023/07/17 10:22:35;;;;;;;9.68;4.88;;;;;;;35.49;27.72;96702.25;5115836;28;20044;-65
2023/07/17 10:25:26;;;;;;;5.32;4.70;;;;;;;35.36;27.60;96705.03;5115115;28;20489;-65
2023/07/17 10:27:57;;;;;;;8.75;5.20;;;;;;;35.40;31.18;96695.38;5115949;28;20043;-65
2023/07/17 10:30:30;;;;;;;9.10;5.65;;;;;;;35.52;29.30;96693.66;5115707;28;20435;-65
2023/07/17 10:33:10;;;;;;;7.88;4.85;;;;;;;35.79;30.07;96696.28;5115790;28;20108;-65
2023/07/17 10:35:46;;;;;;;7.38;4.82;;;;;;;35.85;27.94;96689.16;5115593;28;20052;-66
2023/07/17 10:38:13;;;;;;;8.20;4.60;;;;;;;35.91;27.31;96692.91;5115636;28;20050;-65
2023/07/17 10:40:41;;;;;;;6.20;5.13;;;;;;;35.58;27.80;96685.69;5115525;28;20040;-64
2023/07/17 10:43:16;;;;;;;12.45;5.07;;;;;;;35.43;27.40;96686.81;5115795;28;20079;-65
2023/07/17 10:45:45;;;;;;;9.65;5.07;;;;;;;35.17;28.07;96683.06;5115466;28;20044;-65
2023/07/17 10:48:13;;;;;;;7.03;5.65;;;;;;;34.95;30.23;96685.22;5115496;28;20048;-65
2023/07/17 10:50:48;;;;;;;7.72;4.88;;;;;;;34.95;29.06;96677.06;5115386;28;20058;-64
2023/07/17 10:53:15;;;;;;;5.88;4.63;;;;;;;35.09;31.33;96680.59;5115278;28;20048;-64
2023/07/17 10:55:44;;;;;;;6.32;4.95;;;;;;;35.13;30.46;96677.25;5115189;28;20050;-65
2023/07/17 10:58:11;;;;;;;8.70;4.90;;;;;;;35.34;30.51;96677.22;5115104;28;20082;-64
2023/07/17 11:00:42;;;;;;;7.30;5.10;;;;;;;35.25;29.82;96669.31;5115058;28;20058;-65
2023/07/17 11:03:11;;;;;;;8.02;5.00;;;;;;;35.24;28.50;96673.03;5115300;28;20051;-65
2023/07/17 11:05:38;;;;;;;8.40;5.22;;;;;;;35.28;28.65;96663.41;5115071;28;20096;-64
2023/07/17 11:08:06;;;;;;;9.43;4.90;;;;;;;35.45;31.10;96668.38;5115018;28;20047;-65
2023/07/17 11:10:34;;;;;;;6.75;5.25;;;;;;;35.47;27.60;96662.72;5114929;28;20051;-65
2023/07/17 11:13:03;;;;;;;8.30;5.70;;;;;;;35.35;28.98;96655.25;5114839;28;20081;-64
2023/07/17 11:15:33;;;;;;;5.55;5.03;;;;;;;35.00;29.11;96659.06;5114847;28;20400;-64
2023/07/17 11:18:00;;;;;;;7.63;5.35;;;;;;;34.88;30.48;96656.16;5114815;28;20059;-64
2023/07/17 11:20:30;;;;;;;6.38;5.20;;;;;;;35.02;30.25;96651.56;5114770;28;20050;-64
2023/07/17 11:22:57;;;;;;;10.38;5.50;;;;;;;35.22;29.52;96647.16;5114942;28;20138;-64
2023/07/17 11:25:26;;;;;;;5.85;5.30;;;;;;;35.37;29.91;96649.59;5114714;28;20542;-64
2023/07/17 11:27:54;;;;;;;7.65;5.68;;;;;;;35.47;29.30;96647.25;5114601;28;20047;-64
2023/07/17 11:30:23;;;;;;;8.10;5.38;;;;;;;35.46;30.50;96645.59;5114510;28;20058;-65
2023/07/17 11:33:05;;;;;;;8.43;5.70;;;;;;;35.46;29.83;96644.75;5114553;28;20090;-65
2023/07/17 11:35:45;;;;;;;6.95;5.80;;;;;;;35.56;28.84;96642.41;5113555;28;20090;-65
2023/07/17 11:38:14;;;;;;;8.10;5.90;;;;;;;35.74;28.98;96640.88;5114389;28;20489;-65